sensor_id;sensor_type;location;lat;lon;timestamp;P1;durP1;ratioP1;P2;durP2;ratioP2
21777;SDS011;11050;52.222;20.916;2023-06-26T00:01:16;10.38;;;8.30;;
21777;SDS011;11050;52.222;20.916;2023-06-26T00:03:46;11.77;;;8.70;;
21777;SDS011;11050;52.222;20.916;2023-06-26T00:06:12;12.23;;;7.93;;
21777;SDS011;11050;52.222;20.916;2023-06-26T00:08:38;11.82;;;8.82;;
21777;SDS011;11050;52.222;20.916;2023-06-26T00:11:04;12.90;;;8.23;;
21777;SDS011;11050;52.222;20.916;2023-06-26T00:13:30;11.55;;;8.35;;
21777;SDS011;11050;52.222;20.916;2023-06-26T00:15:56;12.10;;;9.15;;
21777;SDS011;11050;52.222;20.916;2023-06-26T00:18:22;11.50;;;8.68;;
21777;SDS011;11050;52.222;20.916;2023-06-26T00:20:48;13.15;;;9.15;;
21777;SDS011;11050;52.222;20.916;2023-06-26T00:23:18;13.05;;;8.38;;
21777;SDS011;11050;52.222;20.916;2023-06-26T00:25:43;14.15;;;8.73;;
21777;SDS011;11050;52.222;20.916;2023-06-26T00:28:09;11.80;;;8.32;;
21777;SDS011;11050;52.222;20.916;2023-06-26T00:30:35;10.38;;;8.02;;
21777;SDS011;11050;52.222;20.916;2023-06-26T00:33:01;14.02;;;9.45;;
21777;SDS011;11050;52.222;20.916;2023-06-26T00:35:27;13.68;;;9.15;;
21777;SDS011;11050;52.222;20.916;2023-06-26T00:37:52;19.00;;;8.55;;
21777;SDS011;11050;52.222;20.916;2023-06-26T00:40:18;15.98;;;9.77;;
21777;SDS011;11050;52.222;20.916;2023-06-26T00:42:44;12.20;;;8.70;;
21777;SDS011;11050;52.222;20.916;2023-06-26T00:45:10;13.80;;;8.45;;
21777;SDS011;11050;52.222;20.916;2023-06-26T00:47:36;17.92;;;9.60;;
21777;SDS011;11050;52.222;20.916;2023-06-26T00:50:02;12.32;;;7.82;;
21777;SDS011;11050;52.222;20.916;2023-06-26T00:52:30;13.50;;;8.00;;
21777;SDS011;11050;52.222;20.916;2023-06-26T00:54:57;11.77;;;8.70;;
21777;SDS011;11050;52.222;20.916;2023-06-26T00:57:23;13.43;;;8.57;;
21777;SDS011;11050;52.222;20.916;2023-06-26T00:59:49;13.80;;;8.38;;
21777;SDS011;11050;52.222;20.916;2023-06-26T01:02:15;15.02;;;8.95;;
21777;SDS011;11050;52.222;20.916;2023-06-26T01:04:46;12.55;;;8.48;;
21777;SDS011;11050;52.222;20.916;2023-06-26T01:07:14;16.42;;;8.95;;
21777;SDS011;11050;52.222;20.916;2023-06-26T01:09:43;15.55;;;8.75;;
21777;SDS011;11050;52.222;20.916;2023-06-26T01:12:12;21.52;;;10.10;;
21777;SDS011;11050;52.222;20.916;2023-06-26T01:14:38;23.13;;;9.65;;
21777;SDS011;11050;52.222;20.916;2023-06-26T01:17:04;28.80;;;10.77;;
21777;SDS011;11050;52.222;20.916;2023-06-26T01:19:31;18.90;;;10.10;;
21777;SDS011;11050;52.222;20.916;2023-06-26T01:25:21;19.42;;;9.43;;
21777;SDS011;11050;52.222;20.916;2023-06-26T01:28:21;24.52;;;10.82;;
21777;SDS011;11050;52.222;20.916;2023-06-26T01:30:49;19.70;;;10.18;;
21777;SDS011;11050;52.222;20.916;2023-06-26T01:33:16;21.15;;;10.18;;
21777;SDS011;11050;52.222;20.916;2023-06-26T01:35:42;16.30;;;9.63;;
21777;SDS011;11050;52.222;20.916;2023-06-26T01:40:45;16.58;;;8.90;;
21777;SDS011;11050;52.222;20.916;2023-06-26T01:43:16;19.17;;;9.10;;
21777;SDS011;11050;52.222;20.916;2023-06-26T01:46:16;23.63;;;10.60;;
21777;SDS011;11050;52.222;20.916;2023-06-26T01:49:12;18.77;;;9.00;;
21777;SDS011;11050;52.222;20.916;2023-06-26T01:55:09;18.95;;;9.50;;
21777;SDS011;11050;52.222;20.916;2023-06-26T01:57:52;18.38;;;8.55;;
21777;SDS011;11050;52.222;20.916;2023-06-26T02:00:21;17.20;;;9.23;;
21777;SDS011;11050;52.222;20.916;2023-06-26T02:02:50;18.67;;;9.18;;
21777;SDS011;11050;52.222;20.916;2023-06-26T02:05:17;21.60;;;9.65;;
21777;SDS011;11050;52.222;20.916;2023-06-26T02:07:42;19.77;;;9.75;;
21777;SDS011;11050;52.222;20.916;2023-06-26T02:10:09;18.25;;;9.55;;
21777;SDS011;11050;52.222;20.916;2023-06-26T02:12:35;23.42;;;9.85;;
21777;SDS011;11050;52.222;20.916;2023-06-26T02:15:02;16.83;;;9.45;;
21777;SDS011;11050;52.222;20.916;2023-06-26T02:17:29;21.50;;;10.30;;
21777;SDS011;11050;52.222;20.916;2023-06-26T02:19:55;16.10;;;9.90;;
21777;SDS011;11050;52.222;20.916;2023-06-26T02:22:21;19.60;;;8.85;;
21777;SDS011;11050;52.222;20.916;2023-06-26T02:24:47;20.40;;;9.57;;
21777;SDS011;11050;52.222;20.916;2023-06-26T02:27:13;13.57;;;9.10;;
21777;SDS011;11050;52.222;20.916;2023-06-26T02:29:39;16.45;;;9.70;;
21777;SDS011;11050;52.222;20.916;2023-06-26T02:32:06;18.75;;;9.98;;
21777;SDS011;11050;52.222;20.916;2023-06-26T02:34:33;18.42;;;10.15;;
21777;SDS011;11050;52.222;20.916;2023-06-26T02:37:00;16.85;;;9.52;;
21777;SDS011;11050;52.222;20.916;2023-06-26T02:39:27;17.38;;;10.30;;
21777;SDS011;11050;52.222;20.916;2023-06-26T02:41:53;15.35;;;10.00;;
21777;SDS011;11050;52.222;20.916;2023-06-26T02:44:19;14.88;;;9.73;;
21777;SDS011;11050;52.222;20.916;2023-06-26T02:46:44;19.55;;;10.65;;
21777;SDS011;11050;52.222;20.916;2023-06-26T02:49:10;19.15;;;9.30;;
21777;SDS011;11050;52.222;20.916;2023-06-26T02:51:36;15.70;;;10.35;;
21777;SDS011;11050;52.222;20.916;2023-06-26T02:54:02;14.80;;;9.25;;
21777;SDS011;11050;52.222;20.916;2023-06-26T02:56:28;12.88;;;9.52;;
21777;SDS011;11050;52.222;20.916;2023-06-26T02:58:54;15.23;;;10.18;;
21777;SDS011;11050;52.222;20.916;2023-06-26T03:01:21;16.15;;;10.20;;
21777;SDS011;11050;52.222;20.916;2023-06-26T03:03:47;16.98;;;9.98;;
21777;SDS011;11050;52.222;20.916;2023-06-26T03:06:13;15.02;;;9.43;;
21777;SDS011;11050;52.222;20.916;2023-06-26T03:08:40;13.55;;;9.18;;
21777;SDS011;11050;52.222;20.916;2023-06-26T03:11:09;14.85;;;10.18;;
21777;SDS011;11050;52.222;20.916;2023-06-26T03:13:35;15.43;;;9.15;;
21777;SDS011;11050;52.222;20.916;2023-06-26T03:16:02;16.52;;;10.18;;
21777;SDS011;11050;52.222;20.916;2023-06-26T03:18:29;15.88;;;10.63;;
21777;SDS011;11050;52.222;20.916;2023-06-26T03:20:55;14.60;;;9.25;;
21777;SDS011;11050;52.222;20.916;2023-06-26T03:23:22;15.77;;;9.98;;
21777;SDS011;11050;52.222;20.916;2023-06-26T03:25:48;17.92;;;10.55;;
21777;SDS011;11050;52.222;20.916;2023-06-26T03:28:15;16.40;;;10.38;;
21777;SDS011;11050;52.222;20.916;2023-06-26T03:30:41;16.55;;;10.45;;
21777;SDS011;11050;52.222;20.916;2023-06-26T03:33:07;13.30;;;9.68;;
21777;SDS011;11050;52.222;20.916;2023-06-26T03:35:32;15.65;;;10.82;;
21777;SDS011;11050;52.222;20.916;2023-06-26T03:37:58;16.48;;;10.70;;
21777;SDS011;11050;52.222;20.916;2023-06-26T03:40:25;15.90;;;10.27;;
21777;SDS011;11050;52.222;20.916;2023-06-26T03:42:51;20.90;;;11.50;;
21777;SDS011;11050;52.222;20.916;2023-06-26T03:45:17;17.45;;;11.32;;
21777;SDS011;11050;52.222;20.916;2023-06-26T03:47:44;17.13;;;11.82;;
21777;SDS011;11050;52.222;20.916;2023-06-26T03:50:13;19.60;;;10.82;;
21777;SDS011;11050;52.222;20.916;2023-06-26T03:52:42;23.08;;;11.25;;
21777;SDS011;11050;52.222;20.916;2023-06-26T03:55:08;16.50;;;11.55;;
21777;SDS011;11050;52.222;20.916;2023-06-26T03:57:34;17.50;;;11.35;;
21777;SDS011;11050;52.222;20.916;2023-06-26T04:00:00;17.65;;;11.40;;
21777;SDS011;11050;52.222;20.916;2023-06-26T04:02:26;15.35;;;10.48;;
21777;SDS011;11050;52.222;20.916;2023-06-26T04:04:52;18.75;;;11.90;;
21777;SDS011;11050;52.222;20.916;2023-06-26T04:07:18;14.50;;;11.43;;
21777;SDS011;11050;52.222;20.916;2023-06-26T04:09:44;14.68;;;10.85;;
21777;SDS011;11050;52.222;20.916;2023-06-26T04:12:10;19.48;;;12.10;;
21777;SDS011;11050;52.222;20.916;2023-06-26T04:14:36;15.85;;;11.27;;
21777;SDS011;11050;52.222;20.916;2023-06-26T04:17:01;16.30;;;11.27;;
21777;SDS011;11050;52.222;20.916;2023-06-26T04:19:28;16.48;;;11.68;;
21777;SDS011;11050;52.222;20.916;2023-06-26T04:21:55;18.60;;;11.27;;
21777;SDS011;11050;52.222;20.916;2023-06-26T04:24:21;16.88;;;12.18;;
21777;SDS011;11050;52.222;20.916;2023-06-26T04:26:47;18.55;;;12.55;;
21777;SDS011;11050;52.222;20.916;2023-06-26T04:29:13;16.95;;;11.45;;
21777;SDS011;11050;52.222;20.916;2023-06-26T04:31:39;15.73;;;11.05;;
21777;SDS011;11050;52.222;20.916;2023-06-26T04:34:05;17.10;;;12.25;;
21777;SDS011;11050;52.222;20.916;2023-06-26T04:36:31;17.52;;;11.77;;
21777;SDS011;11050;52.222;20.916;2023-06-26T04:38:58;16.35;;;10.90;;
21777;SDS011;11050;52.222;20.916;2023-06-26T04:41:24;17.95;;;11.90;;
21777;SDS011;11050;52.222;20.916;2023-06-26T04:43:50;24.15;;;12.63;;
21777;SDS011;11050;52.222;20.916;2023-06-26T04:46:16;16.35;;;11.15;;
21777;SDS011;11050;52.222;20.916;2023-06-26T04:48:42;16.58;;;10.88;;
21777;SDS011;11050;52.222;20.916;2023-06-26T04:51:09;17.20;;;11.48;;
21777;SDS011;11050;52.222;20.916;2023-06-26T04:53:36;15.43;;;10.80;;
21777;SDS011;11050;52.222;20.916;2023-06-26T04:56:02;16.33;;;11.35;;
21777;SDS011;11050;52.222;20.916;2023-06-26T04:58:28;18.42;;;11.18;;
21777;SDS011;11050;52.222;20.916;2023-06-26T05:00:54;17.52;;;11.30;;
21777;SDS011;11050;52.222;20.916;2023-06-26T05:03:20;14.57;;;11.18;;
21777;SDS011;11050;52.222;20.916;2023-06-26T05:05:46;16.95;;;10.55;;
21777;SDS011;11050;52.222;20.916;2023-06-26T05:08:13;13.65;;;10.05;;
21777;SDS011;11050;52.222;20.916;2023-06-26T05:10:51;14.18;;;10.38;;
21777;SDS011;11050;52.222;20.916;2023-06-26T05:13:18;15.70;;;10.57;;
21777;SDS011;11050;52.222;20.916;2023-06-26T05:15:45;16.58;;;10.68;;
21777;SDS011;11050;52.222;20.916;2023-06-26T05:18:11;19.80;;;10.82;;
21777;SDS011;11050;52.222;20.916;2023-06-26T05:20:37;14.63;;;10.70;;
21777;SDS011;11050;52.222;20.916;2023-06-26T05:23:04;16.08;;;11.35;;
21777;SDS011;11050;52.222;20.916;2023-06-26T05:25:30;17.67;;;12.45;;
21777;SDS011;11050;52.222;20.916;2023-06-26T05:27:59;20.17;;;12.20;;
21777;SDS011;11050;52.222;20.916;2023-06-26T05:30:25;18.30;;;11.27;;
21777;SDS011;11050;52.222;20.916;2023-06-26T05:32:52;15.02;;;10.85;;
21777;SDS011;11050;52.222;20.916;2023-06-26T05:35:22;16.65;;;10.77;;
21777;SDS011;11050;52.222;20.916;2023-06-26T05:37:49;19.92;;;11.30;;
21777;SDS011;11050;52.222;20.916;2023-06-26T05:40:19;17.58;;;10.90;;
21777;SDS011;11050;52.222;20.916;2023-06-26T05:42:45;15.88;;;10.07;;
21777;SDS011;11050;52.222;20.916;2023-06-26T05:45:11;15.75;;;11.00;;
21777;SDS011;11050;52.222;20.916;2023-06-26T05:47:37;15.77;;;10.52;;
21777;SDS011;11050;52.222;20.916;2023-06-26T05:50:03;13.82;;;10.05;;
21777;SDS011;11050;52.222;20.916;2023-06-26T05:52:30;11.98;;;9.40;;
21777;SDS011;11050;52.222;20.916;2023-06-26T05:54:57;13.85;;;9.82;;
21777;SDS011;11050;52.222;20.916;2023-06-26T05:57:25;12.70;;;9.57;;
21777;SDS011;11050;52.222;20.916;2023-06-26T05:59:53;16.67;;;9.27;;
21777;SDS011;11050;52.222;20.916;2023-06-26T06:02:20;13.18;;;9.25;;
21777;SDS011;11050;52.222;20.916;2023-06-26T06:04:46;11.00;;;7.65;;
21777;SDS011;11050;52.222;20.916;2023-06-26T06:07:12;12.25;;;8.57;;
21777;SDS011;11050;52.222;20.916;2023-06-26T06:09:38;16.83;;;8.93;;
21777;SDS011;11050;52.222;20.916;2023-06-26T06:12:05;14.98;;;8.75;;
21777;SDS011;11050;52.222;20.916;2023-06-26T06:14:32;14.00;;;9.32;;
21777;SDS011;11050;52.222;20.916;2023-06-26T06:16:59;19.10;;;10.13;;
21777;SDS011;11050;52.222;20.916;2023-06-26T06:19:25;27.45;;;9.07;;
21777;SDS011;11050;52.222;20.916;2023-06-26T06:21:51;25.15;;;8.25;;
21777;SDS011;11050;52.222;20.916;2023-06-26T06:24:17;18.05;;;8.38;;
21777;SDS011;11050;52.222;20.916;2023-06-26T06:26:43;17.15;;;8.00;;
21777;SDS011;11050;52.222;20.916;2023-06-26T06:29:09;21.92;;;8.13;;
21777;SDS011;11050;52.222;20.916;2023-06-26T06:31:35;19.30;;;7.97;;
21777;SDS011;11050;52.222;20.916;2023-06-26T06:34:01;13.27;;;7.43;;
21777;SDS011;11050;52.222;20.916;2023-06-26T06:36:27;14.35;;;8.20;;
21777;SDS011;11050;52.222;20.916;2023-06-26T06:38:53;14.02;;;8.07;;
21777;SDS011;11050;52.222;20.916;2023-06-26T06:41:19;15.15;;;7.97;;
21777;SDS011;11050;52.222;20.916;2023-06-26T06:43:45;11.15;;;6.93;;
21777;SDS011;11050;52.222;20.916;2023-06-26T06:46:11;10.38;;;6.20;;
21777;SDS011;11050;52.222;20.916;2023-06-26T06:48:37;12.02;;;7.05;;
21777;SDS011;11050;52.222;20.916;2023-06-26T06:51:03;7.82;;;6.00;;
21777;SDS011;11050;52.222;20.916;2023-06-26T06:53:29;8.23;;;5.28;;
21777;SDS011;11050;52.222;20.916;2023-06-26T06:55:55;6.85;;;5.13;;
21777;SDS011;11050;52.222;20.916;2023-06-26T06:58:21;9.90;;;5.43;;
21777;SDS011;11050;52.222;20.916;2023-06-26T07:00:47;12.10;;;5.90;;
21777;SDS011;11050;52.222;20.916;2023-06-26T07:03:14;10.90;;;5.15;;
21777;SDS011;11050;52.222;20.916;2023-06-26T07:05:43;8.68;;;6.25;;
21777;SDS011;11050;52.222;20.916;2023-06-26T07:08:09;6.53;;;5.10;;
21777;SDS011;11050;52.222;20.916;2023-06-26T07:10:35;6.03;;;4.88;;
21777;SDS011;11050;52.222;20.916;2023-06-26T07:13:01;6.75;;;5.30;;
21777;SDS011;11050;52.222;20.916;2023-06-26T07:15:27;6.40;;;5.53;;
21777;SDS011;11050;52.222;20.916;2023-06-26T07:17:53;8.00;;;6.07;;
21777;SDS011;11050;52.222;20.916;2023-06-26T07:20:19;9.05;;;6.22;;
21777;SDS011;11050;52.222;20.916;2023-06-26T07:22:44;9.90;;;6.28;;
21777;SDS011;11050;52.222;20.916;2023-06-26T07:25:11;8.13;;;5.75;;
21777;SDS011;11050;52.222;20.916;2023-06-26T07:27:37;7.53;;;5.18;;
21777;SDS011;11050;52.222;20.916;2023-06-26T07:30:04;7.32;;;5.53;;
21777;SDS011;11050;52.222;20.916;2023-06-26T07:32:30;7.22;;;5.60;;
21777;SDS011;11050;52.222;20.916;2023-06-26T07:34:56;7.57;;;6.05;;
21777;SDS011;11050;52.222;20.916;2023-06-26T07:37:22;9.20;;;6.13;;
21777;SDS011;11050;52.222;20.916;2023-06-26T07:39:48;7.28;;;5.70;;
21777;SDS011;11050;52.222;20.916;2023-06-26T07:42:14;7.13;;;6.00;;
21777;SDS011;11050;52.222;20.916;2023-06-26T07:44:43;6.90;;;5.60;;
21777;SDS011;11050;52.222;20.916;2023-06-26T07:47:09;6.55;;;5.78;;
21777;SDS011;11050;52.222;20.916;2023-06-26T07:49:36;8.45;;;5.80;;
21777;SDS011;11050;52.222;20.916;2023-06-26T07:52:01;6.55;;;5.72;;
21777;SDS011;11050;52.222;20.916;2023-06-26T07:54:28;7.20;;;5.95;;
21777;SDS011;11050;52.222;20.916;2023-06-26T07:56:58;10.63;;;6.13;;
21777;SDS011;11050;52.222;20.916;2023-06-26T07:59:26;6.57;;;5.90;;
21777;SDS011;11050;52.222;20.916;2023-06-26T08:01:55;7.72;;;5.97;;
21777;SDS011;11050;52.222;20.916;2023-06-26T08:04:23;7.78;;;6.45;;
21777;SDS011;11050;52.222;20.916;2023-06-26T08:06:51;9.32;;;5.63;;
21777;SDS011;11050;52.222;20.916;2023-06-26T08:09:21;6.55;;;5.72;;
21777;SDS011;11050;52.222;20.916;2023-06-26T08:11:53;6.90;;;5.93;;
21777;SDS011;11050;52.222;20.916;2023-06-26T08:14:19;6.35;;;5.63;;
21777;SDS011;11050;52.222;20.916;2023-06-26T08:16:45;7.82;;;6.07;;
21777;SDS011;11050;52.222;20.916;2023-06-26T08:19:12;9.93;;;5.93;;
21777;SDS011;11050;52.222;20.916;2023-06-26T08:21:40;7.75;;;6.45;;
21777;SDS011;11050;52.222;20.916;2023-06-26T08:24:08;6.22;;;5.63;;
21777;SDS011;11050;52.222;20.916;2023-06-26T08:26:34;6.68;;;5.97;;
21777;SDS011;11050;52.222;20.916;2023-06-26T08:29:02;6.63;;;5.13;;
21777;SDS011;11050;52.222;20.916;2023-06-26T08:31:36;9.18;;;5.40;;
21777;SDS011;11050;52.222;20.916;2023-06-26T08:34:04;8.52;;;5.63;;
21777;SDS011;11050;52.222;20.916;2023-06-26T08:36:30;6.13;;;4.93;;
21777;SDS011;11050;52.222;20.916;2023-06-26T08:38:57;7.03;;;5.50;;
21777;SDS011;11050;52.222;20.916;2023-06-26T08:41:23;6.05;;;5.45;;
21777;SDS011;11050;52.222;20.916;2023-06-26T08:43:49;5.88;;;4.47;;
21777;SDS011;11050;52.222;20.916;2023-06-26T08:46:17;7.65;;;4.97;;
21777;SDS011;11050;52.222;20.916;2023-06-26T08:48:54;6.30;;;5.35;;
21777;SDS011;11050;52.222;20.916;2023-06-26T08:51:23;6.28;;;4.95;;
21777;SDS011;11050;52.222;20.916;2023-06-26T08:53:57;6.55;;;5.07;;
21777;SDS011;11050;52.222;20.916;2023-06-26T08:56:44;5.90;;;5.07;;
21777;SDS011;11050;52.222;20.916;2023-06-26T08:59:14;5.82;;;4.88;;
21777;SDS011;11050;52.222;20.916;2023-06-26T09:01:41;7.80;;;5.25;;
21777;SDS011;11050;52.222;20.916;2023-06-26T09:04:07;6.53;;;4.75;;
21777;SDS011;11050;52.222;20.916;2023-06-26T09:06:33;8.35;;;5.43;;
21777;SDS011;11050;52.222;20.916;2023-06-26T09:08:59;7.85;;;5.70;;
21777;SDS011;11050;52.222;20.916;2023-06-26T09:11:25;6.13;;;5.22;;
21777;SDS011;11050;52.222;20.916;2023-06-26T09:13:50;6.90;;;5.05;;
21777;SDS011;11050;52.222;20.916;2023-06-26T09:16:17;5.95;;;5.10;;
21777;SDS011;11050;52.222;20.916;2023-06-26T09:18:45;6.57;;;5.43;;
21777;SDS011;11050;52.222;20.916;2023-06-26T09:21:12;6.60;;;4.82;;
21777;SDS011;11050;52.222;20.916;2023-06-26T09:23:39;7.15;;;5.28;;
21777;SDS011;11050;52.222;20.916;2023-06-26T09:26:06;8.43;;;5.63;;
21777;SDS011;11050;52.222;20.916;2023-06-26T09:28:32;5.97;;;5.05;;
21777;SDS011;11050;52.222;20.916;2023-06-26T09:31:03;7.38;;;4.95;;
21777;SDS011;11050;52.222;20.916;2023-06-26T09:33:33;5.75;;;4.60;;
21777;SDS011;11050;52.222;20.916;2023-06-26T09:36:04;5.30;;;4.82;;
21777;SDS011;11050;52.222;20.916;2023-06-26T09:38:36;5.55;;;5.05;;
21777;SDS011;11050;52.222;20.916;2023-06-26T09:41:02;7.72;;;5.00;;
21777;SDS011;11050;52.222;20.916;2023-06-26T09:43:28;5.13;;;4.50;;
21777;SDS011;11050;52.222;20.916;2023-06-26T09:45:56;6.47;;;5.05;;
21777;SDS011;11050;52.222;20.916;2023-06-26T09:48:22;6.18;;;4.72;;
21777;SDS011;11050;52.222;20.916;2023-06-26T09:50:48;5.60;;;4.93;;
21777;SDS011;11050;52.222;20.916;2023-06-26T09:53:13;7.65;;;5.22;;
21777;SDS011;11050;52.222;20.916;2023-06-26T09:55:40;5.32;;;4.80;;
21777;SDS011;11050;52.222;20.916;2023-06-26T09:58:09;5.50;;;5.00;;
21777;SDS011;11050;52.222;20.916;2023-06-26T10:00:40;5.88;;;5.28;;
21777;SDS011;11050;52.222;20.916;2023-06-26T10:03:08;6.30;;;5.68;;
21777;SDS011;11050;52.222;20.916;2023-06-26T10:05:34;6.70;;;4.90;;
21777;SDS011;11050;52.222;20.916;2023-06-26T10:08:00;5.13;;;4.63;;
21777;SDS011;11050;52.222;20.916;2023-06-26T10:10:27;10.77;;;5.07;;
21777;SDS011;11050;52.222;20.916;2023-06-26T10:12:56;5.25;;;4.50;;
21777;SDS011;11050;52.222;20.916;2023-06-26T10:15:29;4.97;;;4.40;;
21777;SDS011;11050;52.222;20.916;2023-06-26T10:17:56;4.88;;;4.40;;
21777;SDS011;11050;52.222;20.916;2023-06-26T10:20:22;5.60;;;5.10;;
21777;SDS011;11050;52.222;20.916;2023-06-26T10:22:51;6.32;;;4.43;;
21777;SDS011;11050;52.222;20.916;2023-06-26T10:25:21;5.55;;;5.05;;
21777;SDS011;11050;52.222;20.916;2023-06-26T10:27:53;8.32;;;4.38;;
21777;SDS011;11050;52.222;20.916;2023-06-26T10:30:26;7.60;;;4.65;;
21777;SDS011;11050;52.222;20.916;2023-06-26T10:32:56;4.85;;;4.07;;
21777;SDS011;11050;52.222;20.916;2023-06-26T10:35:23;4.53;;;4.07;;
21777;SDS011;11050;52.222;20.916;2023-06-26T10:37:50;5.75;;;4.88;;
21777;SDS011;11050;52.222;20.916;2023-06-26T10:40:26;5.80;;;4.40;;
21777;SDS011;11050;52.222;20.916;2023-06-26T10:43:12;6.15;;;4.22;;
21777;SDS011;11050;52.222;20.916;2023-06-26T10:45:47;5.93;;;5.07;;
21777;SDS011;11050;52.222;20.916;2023-06-26T10:48:17;5.55;;;4.40;;
21777;SDS011;11050;52.222;20.916;2023-06-26T10:50:43;5.70;;;4.60;;
21777;SDS011;11050;52.222;20.916;2023-06-26T10:55:43;5.03;;;4.35;;
21777;SDS011;11050;52.222;20.916;2023-06-26T10:58:44;5.03;;;4.50;;
21777;SDS011;11050;52.222;20.916;2023-06-26T11:01:14;7.95;;;4.45;;
21777;SDS011;11050;52.222;20.916;2023-06-26T11:03:48;4.63;;;4.20;;
21777;SDS011;11050;52.222;20.916;2023-06-26T11:06:24;5.18;;;3.90;;
21777;SDS011;11050;52.222;20.916;2023-06-26T11:08:52;4.82;;;4.22;;
21777;SDS011;11050;52.222;20.916;2023-06-26T11:11:54;4.75;;;4.30;;
21777;SDS011;11050;52.222;20.916;2023-06-26T11:14:20;6.25;;;4.70;;
21777;SDS011;11050;52.222;20.916;2023-06-26T11:16:47;4.70;;;4.30;;
21777;SDS011;11050;52.222;20.916;2023-06-26T11:19:14;4.95;;;4.53;;
21777;SDS011;11050;52.222;20.916;2023-06-26T11:21:44;6.15;;;4.38;;
21777;SDS011;11050;52.222;20.916;2023-06-26T11:24:11;4.38;;;3.97;;
21777;SDS011;11050;52.222;20.916;2023-06-26T11:26:39;6.50;;;4.07;;
21777;SDS011;11050;52.222;20.916;2023-06-26T11:29:06;4.97;;;4.47;;
21777;SDS011;11050;52.222;20.916;2023-06-26T11:31:35;6.07;;;4.30;;
21777;SDS011;11050;52.222;20.916;2023-06-26T11:34:04;6.38;;;4.43;;
21777;SDS011;11050;52.222;20.916;2023-06-26T11:36:34;7.82;;;4.38;;
21777;SDS011;11050;52.222;20.916;2023-06-26T11:39:03;5.03;;;4.53;;
21777;SDS011;11050;52.222;20.916;2023-06-26T11:41:32;4.95;;;4.00;;
21777;SDS011;11050;52.222;20.916;2023-06-26T11:44:01;4.88;;;4.10;;
21777;SDS011;11050;52.222;20.916;2023-06-26T11:46:30;6.20;;;4.00;;
21777;SDS011;11050;52.222;20.916;2023-06-26T11:48:56;4.30;;;3.78;;
21777;SDS011;11050;52.222;20.916;2023-06-26T11:51:22;4.10;;;3.72;;
21777;SDS011;11050;52.222;20.916;2023-06-26T11:53:48;7.10;;;4.22;;
21777;SDS011;11050;52.222;20.916;2023-06-26T11:56:16;5.18;;;4.30;;
21777;SDS011;11050;52.222;20.916;2023-06-26T12:01:41;4.35;;;3.85;;
21777;SDS011;11050;52.222;20.916;2023-06-26T12:04:12;3.83;;;3.47;;
21777;SDS011;11050;52.222;20.916;2023-06-26T12:06:47;10.50;;;4.10;;
21777;SDS011;11050;52.222;20.916;2023-06-26T12:09:16;5.63;;;3.75;;
21777;SDS011;11050;52.222;20.916;2023-06-26T12:11:44;4.43;;;3.25;;
21777;SDS011;11050;52.222;20.916;2023-06-26T12:14:14;3.97;;;3.67;;
21777;SDS011;11050;52.222;20.916;2023-06-26T12:16:41;8.43;;;3.63;;
21777;SDS011;11050;52.222;20.916;2023-06-26T12:19:08;4.28;;;3.88;;
21777;SDS011;11050;52.222;20.916;2023-06-26T12:24:02;4.80;;;3.42;;
21777;SDS011;11050;52.222;20.916;2023-06-26T12:26:30;4.22;;;3.83;;
21777;SDS011;11050;52.222;20.916;2023-06-26T12:29:11;5.70;;;3.55;;
21777;SDS011;11050;52.222;20.916;2023-06-26T12:31:43;6.07;;;3.55;;
21777;SDS011;11050;52.222;20.916;2023-06-26T12:34:19;4.22;;;3.70;;
21777;SDS011;11050;52.222;20.916;2023-06-26T12:37:07;3.95;;;3.58;;
21777;SDS011;11050;52.222;20.916;2023-06-26T12:39:45;4.35;;;3.92;;
21777;SDS011;11050;52.222;20.916;2023-06-26T12:42:16;4.47;;;3.90;;
21777;SDS011;11050;52.222;20.916;2023-06-26T12:44:44;4.32;;;3.88;;
21777;SDS011;11050;52.222;20.916;2023-06-26T12:47:10;5.18;;;4.13;;
21777;SDS011;11050;52.222;20.916;2023-06-26T12:49:39;5.50;;;4.07;;
21777;SDS011;11050;52.222;20.916;2023-06-26T12:52:10;4.60;;;4.20;;
21777;SDS011;11050;52.222;20.916;2023-06-26T12:54:38;4.80;;;4.30;;
21777;SDS011;11050;52.222;20.916;2023-06-26T12:57:06;5.10;;;4.60;;
21777;SDS011;11050;52.222;20.916;2023-06-26T12:59:33;4.10;;;3.80;;
21777;SDS011;11050;52.222;20.916;2023-06-26T13:02:02;4.70;;;4.20;;
21777;SDS011;11050;52.222;20.916;2023-06-26T13:04:28;4.30;;;3.85;;
21777;SDS011;11050;52.222;20.916;2023-06-26T13:06:54;5.20;;;4.65;;
21777;SDS011;11050;52.222;20.916;2023-06-26T13:09:21;4.45;;;4.00;;
21777;SDS011;11050;52.222;20.916;2023-06-26T13:11:50;4.30;;;3.90;;
21777;SDS011;11050;52.222;20.916;2023-06-26T13:14:17;4.50;;;4.03;;
21777;SDS011;11050;52.222;20.916;2023-06-26T13:16:42;5.07;;;3.70;;
21777;SDS011;11050;52.222;20.916;2023-06-26T13:19:08;4.03;;;3.60;;
21777;SDS011;11050;52.222;20.916;2023-06-26T13:21:34;4.28;;;3.88;;
21777;SDS011;11050;52.222;20.916;2023-06-26T13:24:01;4.57;;;4.10;;
21777;SDS011;11050;52.222;20.916;2023-06-26T13:26:31;4.55;;;4.13;;
21777;SDS011;11050;52.222;20.916;2023-06-26T13:28:58;5.15;;;3.95;;
21777;SDS011;11050;52.222;20.916;2023-06-26T13:31:24;5.35;;;4.13;;
21777;SDS011;11050;52.222;20.916;2023-06-26T13:33:50;4.55;;;3.72;;
21777;SDS011;11050;52.222;20.916;2023-06-26T13:36:17;6.75;;;4.20;;
21777;SDS011;11050;52.222;20.916;2023-06-26T13:38:44;6.32;;;4.00;;
21777;SDS011;11050;52.222;20.916;2023-06-26T13:41:10;4.32;;;3.92;;
21777;SDS011;11050;52.222;20.916;2023-06-26T13:43:36;4.43;;;4.03;;
21777;SDS011;11050;52.222;20.916;2023-06-26T13:46:02;4.78;;;4.07;;
21777;SDS011;11050;52.222;20.916;2023-06-26T13:48:28;4.20;;;3.80;;
21777;SDS011;11050;52.222;20.916;2023-06-26T13:50:54;4.07;;;3.70;;
21777;SDS011;11050;52.222;20.916;2023-06-26T13:53:21;4.13;;;3.80;;
21777;SDS011;11050;52.222;20.916;2023-06-26T13:55:53;5.10;;;3.83;;
21777;SDS011;11050;52.222;20.916;2023-06-26T13:58:19;4.90;;;3.80;;
21777;SDS011;11050;52.222;20.916;2023-06-26T14:00:47;3.97;;;3.67;;
21777;SDS011;11050;52.222;20.916;2023-06-26T14:03:13;4.40;;;3.88;;
21777;SDS011;11050;52.222;20.916;2023-06-26T14:05:39;4.18;;;3.83;;
21777;SDS011;11050;52.222;20.916;2023-06-26T14:08:07;4.60;;;4.13;;
21777;SDS011;11050;52.222;20.916;2023-06-26T14:10:34;4.25;;;3.88;;
21777;SDS011;11050;52.222;20.916;2023-06-26T14:13:00;4.30;;;4.00;;
21777;SDS011;11050;52.222;20.916;2023-06-26T14:15:26;6.15;;;4.00;;
21777;SDS011;11050;52.222;20.916;2023-06-26T14:17:51;6.20;;;4.03;;
21777;SDS011;11050;52.222;20.916;2023-06-26T14:20:17;4.25;;;3.80;;
21777;SDS011;11050;52.222;20.916;2023-06-26T14:22:46;6.43;;;4.13;;
21777;SDS011;11050;52.222;20.916;2023-06-26T14:25:12;5.05;;;4.18;;
21777;SDS011;11050;52.222;20.916;2023-06-26T14:27:38;4.88;;;3.88;;
21777;SDS011;11050;52.222;20.916;2023-06-26T14:30:05;6.72;;;3.72;;
21777;SDS011;11050;52.222;20.916;2023-06-26T14:32:35;5.53;;;4.00;;
21777;SDS011;11050;52.222;20.916;2023-06-26T14:35:01;5.90;;;4.15;;
21777;SDS011;11050;52.222;20.916;2023-06-26T14:37:28;4.47;;;4.07;;
21777;SDS011;11050;52.222;20.916;2023-06-26T14:39:56;5.47;;;4.15;;
21777;SDS011;11050;52.222;20.916;2023-06-26T14:42:23;5.30;;;4.55;;
21777;SDS011;11050;52.222;20.916;2023-06-26T14:44:50;5.05;;;4.55;;
21777;SDS011;11050;52.222;20.916;2023-06-26T14:47:16;4.32;;;3.92;;